sensor_id;sensor_type;location;lat;lon;timestamp;P1;durP1;ratioP1;P2;durP2;ratioP2
6432;SDS011;3249;42.690;23.260;2024-01-15T00:02:11;62.60;;;36.38;;
6432;SDS011;3249;42.690;23.260;2024-01-15T00:04:41;63.72;;;34.83;;
6432;SDS011;3249;42.690;23.260;2024-01-15T00:07:10;72.40;;;36.75;;
6432;SDS011;3249;42.690;23.260;2024-01-15T00:09:42;66.75;;;36.25;;
6432;SDS011;3249;42.690;23.260;2024-01-15T00:12:11;63.67;;;33.95;;
6432;SDS011;3249;42.690;23.260;2024-01-15T00:14:41;62.05;;;35.35;;
6432;SDS011;3249;42.690;23.260;2024-01-15T00:17:10;59.80;;;34.80;;
6432;SDS011;3249;42.690;23.260;2024-01-15T00:19:39;63.13;;;34.35;;
6432;SDS011;3249;42.690;23.260;2024-01-15T00:22:09;59.53;;;33.15;;
6432;SDS011;3249;42.690;23.260;2024-01-15T00:24:38;61.85;;;33.50;;
6432;SDS011;3249;42.690;23.260;2024-01-15T00:27:12;61.70;;;32.80;;
6432;SDS011;3249;42.690;23.260;2024-01-15T00:29:41;61.13;;;34.45;;
6432;SDS011;3249;42.690;23.260;2024-01-15T00:32:11;49.65;;;29.75;;
6432;SDS011;3249;42.690;23.260;2024-01-15T00:34:43;56.72;;;34.50;;
6432;SDS011;3249;42.690;23.260;2024-01-15T00:37:13;57.22;;;31.88;;
6432;SDS011;3249;42.690;23.260;2024-01-15T00:39:45;54.45;;;33.10;;
6432;SDS011;3249;42.690;23.260;2024-01-15T00:42:15;57.88;;;32.70;;
6432;SDS011;3249;42.690;23.260;2024-01-15T00:45:03;59.00;;;32.33;;
6432;SDS011;3249;42.690;23.260;2024-01-15T00:47:34;49.28;;;32.25;;
6432;SDS011;3249;42.690;23.260;2024-01-15T00:50:04;62.03;;;33.90;;
6432;SDS011;3249;42.690;23.260;2024-01-15T00:52:34;58.20;;;34.72;;
6432;SDS011;3249;42.690;23.260;2024-01-15T00:55:06;57.20;;;35.90;;
6432;SDS011;3249;42.690;23.260;2024-01-15T00:57:36;57.00;;;32.97;;
6432;SDS011;3249;42.690;23.260;2024-01-15T01:00:06;56.65;;;31.13;;
6432;SDS011;3249;42.690;23.260;2024-01-15T01:02:36;54.20;;;32.80;;
6432;SDS011;3249;42.690;23.260;2024-01-15T01:05:05;50.70;;;33.25;;
6432;SDS011;3249;42.690;23.260;2024-01-15T01:07:35;58.35;;;32.60;;
6432;SDS011;3249;42.690;23.260;2024-01-15T01:10:07;58.83;;;32.33;;
6432;SDS011;3249;42.690;23.260;2024-01-15T01:12:37;53.83;;;30.00;;
6432;SDS011;3249;42.690;23.260;2024-01-15T01:15:06;57.42;;;31.80;;
6432;SDS011;3249;42.690;23.260;2024-01-15T01:17:36;53.10;;;30.17;;
6432;SDS011;3249;42.690;23.260;2024-01-15T01:20:06;50.42;;;29.77;;
6432;SDS011;3249;42.690;23.260;2024-01-15T01:22:36;49.80;;;30.50;;
6432;SDS011;3249;42.690;23.260;2024-01-15T01:25:08;54.65;;;31.65;;
6432;SDS011;3249;42.690;23.260;2024-01-15T01:27:38;56.40;;;29.13;;
6432;SDS011;3249;42.690;23.260;2024-01-15T01:30:08;50.15;;;29.42;;
6432;SDS011;3249;42.690;23.260;2024-01-15T01:32:38;48.83;;;29.50;;
6432;SDS011;3249;42.690;23.260;2024-01-15T01:35:07;49.60;;;28.60;;
6432;SDS011;3249;42.690;23.260;2024-01-15T01:37:36;51.97;;;28.67;;
6432;SDS011;3249;42.690;23.260;2024-01-15T01:40:08;49.30;;;30.27;;
6432;SDS011;3249;42.690;23.260;2024-01-15T01:42:39;52.30;;;30.30;;
6432;SDS011;3249;42.690;23.260;2024-01-15T01:45:08;51.28;;;28.65;;
6432;SDS011;3249;42.690;23.260;2024-01-15T01:47:38;46.63;;;27.85;;
6432;SDS011;3249;42.690;23.260;2024-01-15T01:50:07;47.40;;;27.80;;
6432;SDS011;3249;42.690;23.260;2024-01-15T01:52:37;48.30;;;26.67;;
6432;SDS011;3249;42.690;23.260;2024-01-15T01:55:09;43.75;;;26.58;;
6432;SDS011;3249;42.690;23.260;2024-01-15T01:57:42;49.15;;;29.23;;
6432;SDS011;3249;42.690;23.260;2024-01-15T02:00:12;50.20;;;29.48;;
6432;SDS011;3249;42.690;23.260;2024-01-15T02:02:42;54.88;;;29.48;;
6432;SDS011;3249;42.690;23.260;2024-01-15T02:05:11;48.40;;;28.00;;
6432;SDS011;3249;42.690;23.260;2024-01-15T02:07:42;48.17;;;28.40;;
6432;SDS011;3249;42.690;23.260;2024-01-15T02:10:17;46.30;;;27.15;;
6432;SDS011;3249;42.690;23.260;2024-01-15T02:12:46;46.35;;;29.17;;
6432;SDS011;3249;42.690;23.260;2024-01-15T02:15:15;52.67;;;31.77;;
6432;SDS011;3249;42.690;23.260;2024-01-15T02:17:57;49.03;;;28.23;;
6432;SDS011;3249;42.690;23.260;2024-01-15T02:20:27;49.28;;;29.92;;
6432;SDS011;3249;42.690;23.260;2024-01-15T02:23:05;47.25;;;29.48;;
6432;SDS011;3249;42.690;23.260;2024-01-15T02:25:39;51.63;;;29.20;;
6432;SDS011;3249;42.690;23.260;2024-01-15T02:28:10;55.00;;;29.77;;
6432;SDS011;3249;42.690;23.260;2024-01-15T02:30:41;51.88;;;31.23;;
6432;SDS011;3249;42.690;23.260;2024-01-15T02:33:11;50.63;;;31.45;;
6432;SDS011;3249;42.690;23.260;2024-01-15T02:35:41;55.40;;;29.88;;
6432;SDS011;3249;42.690;23.260;2024-01-15T02:38:14;44.47;;;27.88;;
6432;SDS011;3249;42.690;23.260;2024-01-15T02:40:44;47.47;;;30.33;;
6432;SDS011;3249;42.690;23.260;2024-01-15T02:43:14;51.20;;;30.10;;
6432;SDS011;3249;42.690;23.260;2024-01-15T02:45:45;53.03;;;30.33;;
6432;SDS011;3249;42.690;23.260;2024-01-15T02:48:14;54.53;;;30.25;;
6432;SDS011;3249;42.690;23.260;2024-01-15T02:50:43;51.47;;;29.23;;
6432;SDS011;3249;42.690;23.260;2024-01-15T02:53:15;53.80;;;29.13;;
6432;SDS011;3249;42.690;23.260;2024-01-15T02:55:44;49.55;;;30.35;;
6432;SDS011;3249;42.690;23.260;2024-01-15T02:58:14;53.75;;;29.60;;
6432;SDS011;3249;42.690;23.260;2024-01-15T03:00:43;47.33;;;27.63;;
6432;SDS011;3249;42.690;23.260;2024-01-15T03:03:13;58.58;;;34.05;;
6432;SDS011;3249;42.690;23.260;2024-01-15T03:05:42;57.92;;;31.55;;
6432;SDS011;3249;42.690;23.260;2024-01-15T03:08:11;55.00;;;30.65;;
6432;SDS011;3249;42.690;23.260;2024-01-15T03:10:44;101.45;;;40.83;;
6432;SDS011;3249;42.690;23.260;2024-01-15T03:13:13;413.65;;;128.57;;
6432;SDS011;3249;42.690;23.260;2024-01-15T03:15:44;315.17;;;97.95;;
6432;SDS011;3249;42.690;23.260;2024-01-15T03:18:14;112.88;;;46.38;;
6432;SDS011;3249;42.690;23.260;2024-01-15T03:20:44;89.63;;;39.58;;
6432;SDS011;3249;42.690;23.260;2024-01-15T03:23:13;181.40;;;63.70;;
6432;SDS011;3249;42.690;23.260;2024-01-15T03:25:45;534.25;;;205.50;;
6432;SDS011;3249;42.690;23.260;2024-01-15T03:28:14;742.00;;;303.60;;
6432;SDS011;3249;42.690;23.260;2024-01-15T03:30:44;497.98;;;186.38;;
6432;SDS011;3249;42.690;23.260;2024-01-15T03:33:13;286.42;;;95.55;;
6432;SDS011;3249;42.690;23.260;2024-01-15T03:35:43;356.80;;;122.25;;
6432;SDS011;3249;42.690;23.260;2024-01-15T03:38:12;397.75;;;132.57;;
6432;SDS011;3249;42.690;23.260;2024-01-15T03:40:41;353.65;;;118.60;;
6432;SDS011;3249;42.690;23.260;2024-01-15T03:43:13;361.88;;;121.82;;
6432;SDS011;3249;42.690;23.260;2024-01-15T03:45:43;299.33;;;101.88;;
6432;SDS011;3249;42.690;23.260;2024-01-15T03:48:12;145.43;;;59.72;;
6432;SDS011;3249;42.690;23.260;2024-01-15T03:50:41;167.43;;;67.68;;
6432;SDS011;3249;42.690;23.260;2024-01-15T03:53:11;92.88;;;45.67;;
6432;SDS011;3249;42.690;23.260;2024-01-15T03:55:40;78.05;;;42.28;;
6432;SDS011;3249;42.690;23.260;2024-01-15T03:58:09;62.55;;;34.55;;
6432;SDS011;3249;42.690;23.260;2024-01-15T04:00:43;58.22;;;33.78;;
6432;SDS011;3249;42.690;23.260;2024-01-15T04:03:13;92.55;;;46.33;;
6432;SDS011;3249;42.690;23.260;2024-01-15T04:05:42;103.65;;;49.00;;
6432;SDS011;3249;42.690;23.260;2024-01-15T04:08:12;83.95;;;41.03;;
6432;SDS011;3249;42.690;23.260;2024-01-15T04:10:41;91.13;;;46.25;;
6432;SDS011;3249;42.690;23.260;2024-01-15T04:13:10;77.80;;;40.65;;
6432;SDS011;3249;42.690;23.260;2024-01-15T04:15:43;72.20;;;38.97;;
6432;SDS011;3249;42.690;23.260;2024-01-15T04:18:13;61.67;;;38.92;;
6432;SDS011;3249;42.690;23.260;2024-01-15T04:20:42;72.03;;;40.90;;
6432;SDS011;3249;42.690;23.260;2024-01-15T04:23:11;97.72;;;53.42;;
6432;SDS011;3249;42.690;23.260;2024-01-15T04:25:40;107.78;;;56.63;;
6432;SDS011;3249;42.690;23.260;2024-01-15T04:28:10;133.50;;;68.10;;
6432;SDS011;3249;42.690;23.260;2024-01-15T04:30:43;117.88;;;66.85;;
6432;SDS011;3249;42.690;23.260;2024-01-15T04:33:13;120.05;;;61.22;;
6432;SDS011;3249;42.690;23.260;2024-01-15T04:35:42;121.93;;;64.30;;
6432;SDS011;3249;42.690;23.260;2024-01-15T04:38:11;112.40;;;63.72;;
6432;SDS011;3249;42.690;23.260;2024-01-15T04:40:40;121.00;;;59.92;;
6432;SDS011;3249;42.690;23.260;2024-01-15T04:43:09;102.38;;;54.42;;
6432;SDS011;3249;42.690;23.260;2024-01-15T04:45:47;90.07;;;47.22;;
6432;SDS011;3249;42.690;23.260;2024-01-15T04:48:16;91.78;;;50.95;;
6432;SDS011;3249;42.690;23.260;2024-01-15T04:50:46;96.32;;;55.88;;
6432;SDS011;3249;42.690;23.260;2024-01-15T04:53:16;87.72;;;49.22;;
6432;SDS011;3249;42.690;23.260;2024-01-15T04:55:45;79.10;;;45.75;;
6432;SDS011;3249;42.690;23.260;2024-01-15T04:58:14;75.75;;;46.33;;
6432;SDS011;3249;42.690;23.260;2024-01-15T05:00:44;77.95;;;45.97;;
6432;SDS011;3249;42.690;23.260;2024-01-15T05:03:16;77.07;;;44.05;;
6432;SDS011;3249;42.690;23.260;2024-01-15T05:05:45;79.72;;;45.70;;
6432;SDS011;3249;42.690;23.260;2024-01-15T05:08:14;78.78;;;49.55;;
6432;SDS011;3249;42.690;23.260;2024-01-15T05:10:44;80.30;;;45.53;;
6432;SDS011;3249;42.690;23.260;2024-01-15T05:13:13;107.05;;;61.97;;
6432;SDS011;3249;42.690;23.260;2024-01-15T05:15:43;100.00;;;57.33;;
6432;SDS011;3249;42.690;23.260;2024-01-15T05:18:15;89.15;;;49.08;;
6432;SDS011;3249;42.690;23.260;2024-01-15T05:20:46;82.00;;;46.33;;
6432;SDS011;3249;42.690;23.260;2024-01-15T05:23:15;88.75;;;49.95;;
6432;SDS011;3249;42.690;23.260;2024-01-15T05:25:44;90.65;;;46.33;;
6432;SDS011;3249;42.690;23.260;2024-01-15T05:28:13;95.78;;;52.08;;
6432;SDS011;3249;42.690;23.260;2024-01-15T05:30:43;83.50;;;48.47;;
6432;SDS011;3249;42.690;23.260;2024-01-15T05:33:15;77.95;;;44.17;;
6432;SDS011;3249;42.690;23.260;2024-01-15T05:35:45;77.55;;;42.53;;
6432;SDS011;3249;42.690;23.260;2024-01-15T05:38:12;81.43;;;46.65;;
6432;SDS011;3249;42.690;23.260;2024-01-15T05:40:41;76.00;;;44.72;;
6432;SDS011;3249;42.690;23.260;2024-01-15T05:43:10;81.55;;;47.15;;
6432;SDS011;3249;42.690;23.260;2024-01-15T05:45:42;93.53;;;53.47;;
6432;SDS011;3249;42.690;23.260;2024-01-15T05:48:15;106.43;;;54.53;;
6432;SDS011;3249;42.690;23.260;2024-01-15T05:50:44;114.55;;;55.35;;
6432;SDS011;3249;42.690;23.260;2024-01-15T05:53:13;121.15;;;66.45;;
6432;SDS011;3249;42.690;23.260;2024-01-15T05:55:43;114.88;;;56.70;;
6432;SDS011;3249;42.690;23.260;2024-01-15T05:58:12;116.38;;;58.05;;
6432;SDS011;3249;42.690;23.260;2024-01-15T06:00:42;103.32;;;55.33;;
6432;SDS011;3249;42.690;23.260;2024-01-15T06:03:12;114.68;;;57.60;;
6432;SDS011;3249;42.690;23.260;2024-01-15T06:05:44;100.15;;;54.95;;
6432;SDS011;3249;42.690;23.260;2024-01-15T06:08:13;95.72;;;51.28;;
6432;SDS011;3249;42.690;23.260;2024-01-15T06:10:43;79.78;;;46.97;;
6432;SDS011;3249;42.690;23.260;2024-01-15T06:13:12;80.38;;;43.35;;
6432;SDS011;3249;42.690;23.260;2024-01-15T06:15:42;90.18;;;46.95;;
6432;SDS011;3249;42.690;23.260;2024-01-15T06:18:11;88.85;;;43.97;;
6432;SDS011;3249;42.690;23.260;2024-01-15T06:20:43;83.65;;;47.22;;
6432;SDS011;3249;42.690;23.260;2024-01-15T06:23:12;87.03;;;51.22;;
6432;SDS011;3249;42.690;23.260;2024-01-15T06:25:42;97.22;;;55.70;;
6432;SDS011;3249;42.690;23.260;2024-01-15T06:28:11;107.95;;;60.10;;
6432;SDS011;3249;42.690;23.260;2024-01-15T06:30:42;96.43;;;54.90;;
6432;SDS011;3249;42.690;23.260;2024-01-15T06:33:11;102.53;;;56.03;;
6432;SDS011;3249;42.690;23.260;2024-01-15T06:35:43;99.68;;;55.00;;
6432;SDS011;3249;42.690;23.260;2024-01-15T06:38:12;86.35;;;48.78;;
6432;SDS011;3249;42.690;23.260;2024-01-15T06:40:41;87.75;;;50.65;;
6432;SDS011;3249;42.690;23.260;2024-01-15T06:43:13;85.28;;;51.42;;
6432;SDS011;3249;42.690;23.260;2024-01-15T06:45:44;63.72;;;38.65;;
6432;SDS011;3249;42.690;23.260;2024-01-15T06:48:13;85.05;;;44.25;;
6432;SDS011;3249;42.690;23.260;2024-01-15T06:50:47;70.45;;;39.50;;
6432;SDS011;3249;42.690;23.260;2024-01-15T06:53:16;64.90;;;39.95;;
6432;SDS011;3249;42.690;23.260;2024-01-15T06:55:45;70.15;;;40.10;;
6432;SDS011;3249;42.690;23.260;2024-01-15T06:58:14;84.78;;;45.53;;
6432;SDS011;3249;42.690;23.260;2024-01-15T07:00:43;85.03;;;45.10;;
6432;SDS011;3249;42.690;23.260;2024-01-15T07:03:13;73.07;;;41.67;;
6432;SDS011;3249;42.690;23.260;2024-01-15T07:05:42;77.70;;;44.53;;
6432;SDS011;3249;42.690;23.260;2024-01-15T07:08:13;75.07;;;43.10;;
6432;SDS011;3249;42.690;23.260;2024-01-15T07:10:43;71.47;;;41.45;;
6432;SDS011;3249;42.690;23.260;2024-01-15T07:13:12;67.65;;;40.00;;
6432;SDS011;3249;42.690;23.260;2024-01-15T07:15:42;67.22;;;39.28;;
6432;SDS011;3249;42.690;23.260;2024-01-15T07:18:11;67.72;;;37.95;;
6432;SDS011;3249;42.690;23.260;2024-01-15T07:20:40;76.88;;;42.97;;
6432;SDS011;3249;42.690;23.260;2024-01-15T07:23:10;73.67;;;43.77;;
6432;SDS011;3249;42.690;23.260;2024-01-15T07:25:43;77.97;;;48.75;;
6432;SDS011;3249;42.690;23.260;2024-01-15T07:28:12;77.75;;;45.83;;
6432;SDS011;3249;42.690;23.260;2024-01-15T07:30:41;79.73;;;45.23;;
6432;SDS011;3249;42.690;23.260;2024-01-15T07:33:11;85.07;;;48.23;;
6432;SDS011;3249;42.690;23.260;2024-01-15T07:35:41;110.23;;;57.97;;
6432;SDS011;3249;42.690;23.260;2024-01-15T07:38:13;74.50;;;43.07;;
6432;SDS011;3249;42.690;23.260;2024-01-15T07:40:45;69.93;;;40.63;;
6432;SDS011;3249;42.690;23.260;2024-01-15T07:43:16;84.00;;;47.33;;
6432;SDS011;3249;42.690;23.260;2024-01-15T07:45:46;83.77;;;48.00;;
6432;SDS011;3249;42.690;23.260;2024-01-15T07:48:15;95.70;;;51.27;;
6432;SDS011;3249;42.690;23.260;2024-01-15T07:50:46;94.63;;;53.43;;
6432;SDS011;3249;42.690;23.260;2024-01-15T07:53:18;89.83;;;54.27;;
6432;SDS011;3249;42.690;23.260;2024-01-15T07:55:48;86.07;;;50.53;;
6432;SDS011;3249;42.690;23.260;2024-01-15T07:58:17;83.33;;;48.10;;
6432;SDS011;3249;42.690;23.260;2024-01-15T08:00:46;103.67;;;58.77;;
6432;SDS011;3249;42.690;23.260;2024-01-15T08:03:16;129.63;;;71.70;;
6432;SDS011;3249;42.690;23.260;2024-01-15T08:05:48;128.67;;;72.90;;
6432;SDS011;3249;42.690;23.260;2024-01-15T08:08:22;124.77;;;72.93;;
6432;SDS011;3249;42.690;23.260;2024-01-15T08:10:52;131.50;;;73.00;;
6432;SDS011;3249;42.690;23.260;2024-01-15T08:13:21;152.23;;;87.77;;
6432;SDS011;3249;42.690;23.260;2024-01-15T08:15:51;137.30;;;79.83;;
6432;SDS011;3249;42.690;23.260;2024-01-15T08:18:21;127.97;;;71.17;;
6432;SDS011;3249;42.690;23.260;2024-01-15T08:20:51;139.80;;;78.87;;
6432;SDS011;3249;42.690;23.260;2024-01-15T08:23:25;147.40;;;82.77;;
6432;SDS011;3249;42.690;23.260;2024-01-15T08:25:57;151.10;;;93.03;;
6432;SDS011;3249;42.690;23.260;2024-01-15T08:28:26;195.43;;;113.53;;
6432;SDS011;3249;42.690;23.260;2024-01-15T08:30:56;199.87;;;116.07;;
6432;SDS011;3249;42.690;23.260;2024-01-15T08:33:26;225.27;;;121.70;;
6432;SDS011;3249;42.690;23.260;2024-01-15T08:35:55;202.87;;;118.00;;
6432;SDS011;3249;42.690;23.260;2024-01-15T08:38:27;191.03;;;107.73;;
6432;SDS011;3249;42.690;23.260;2024-01-15T08:40:56;161.23;;;91.40;;
6432;SDS011;3249;42.690;23.260;2024-01-15T08:43:26;123.13;;;71.33;;
6432;SDS011;3249;42.690;23.260;2024-01-15T08:45:56;120.70;;;67.87;;
6432;SDS011;3249;42.690;23.260;2024-01-15T08:48:26;107.63;;;62.80;;
6432;SDS011;3249;42.690;23.260;2024-01-15T08:50:55;111.13;;;64.57;;
6432;SDS011;3249;42.690;23.260;2024-01-15T08:53:27;104.67;;;61.67;;
6432;SDS011;3249;42.690;23.260;2024-01-15T08:55:57;97.73;;;59.53;;
6432;SDS011;3249;42.690;23.260;2024-01-15T08:58:26;98.17;;;55.07;;
6432;SDS011;3249;42.690;23.260;2024-01-15T09:00:55;101.10;;;56.97;;
6432;SDS011;3249;42.690;23.260;2024-01-15T09:03:25;95.40;;;56.20;;
6432;SDS011;3249;42.690;23.260;2024-01-15T09:05:54;82.27;;;47.07;;
6432;SDS011;3249;42.690;23.260;2024-01-15T09:08:24;80.43;;;48.37;;
6432;SDS011;3249;42.690;23.260;2024-01-15T09:10:56;85.17;;;48.50;;
6432;SDS011;3249;42.690;23.260;2024-01-15T09:13:28;82.37;;;47.37;;
6432;SDS011;3249;42.690;23.260;2024-01-15T09:15:58;71.17;;;41.67;;
6432;SDS011;3249;42.690;23.260;2024-01-15T09:18:27;69.23;;;40.10;;
6432;SDS011;3249;42.690;23.260;2024-01-15T09:20:57;78.03;;;44.90;;
6432;SDS011;3249;42.690;23.260;2024-01-15T09:23:26;64.47;;;37.63;;
6432;SDS011;3249;42.690;23.260;2024-01-15T09:25:58;54.73;;;34.10;;
6432;SDS011;3249;42.690;23.260;2024-01-15T09:28:28;52.57;;;32.93;;
6432;SDS011;3249;42.690;23.260;2024-01-15T09:30:57;44.33;;;25.93;;
6432;SDS011;3249;42.690;23.260;2024-01-15T09:33:26;46.17;;;26.93;;
6432;SDS011;3249;42.690;23.260;2024-01-15T09:35:55;81.27;;;30.97;;
6432;SDS011;3249;42.690;23.260;2024-01-15T09:38:25;52.07;;;32.10;;
6432;SDS011;3249;42.690;23.260;2024-01-15T09:40:54;67.13;;;41.37;;
6432;SDS011;3249;42.690;23.260;2024-01-15T09:43:27;64.17;;;42.70;;
6432;SDS011;3249;42.690;23.260;2024-01-15T09:45:56;117.43;;;65.27;;
6432;SDS011;3249;42.690;23.260;2024-01-15T09:48:26;107.07;;;63.53;;
6432;SDS011;3249;42.690;23.260;2024-01-15T09:50:55;119.43;;;72.10;;
6432;SDS011;3249;42.690;23.260;2024-01-15T09:53:27;71.50;;;45.63;;
6432;SDS011;3249;42.690;23.260;2024-01-15T09:55:57;129.23;;;80.57;;
6432;SDS011;3249;42.690;23.260;2024-01-15T09:58:29;109.80;;;63.40;;
6432;SDS011;3249;42.690;23.260;2024-01-15T10:00:59;103.27;;;59.67;;
6432;SDS011;3249;42.690;23.260;2024-01-15T10:03:30;125.47;;;69.20;;
6432;SDS011;3249;42.690;23.260;2024-01-15T10:06:01;82.03;;;50.00;;
6432;SDS011;3249;42.690;23.260;2024-01-15T10:08:30;117.77;;;70.40;;
6432;SDS011;3249;42.690;23.260;2024-01-15T10:11:01;131.07;;;75.53;;
6432;SDS011;3249;42.690;23.260;2024-01-15T10:13:32;123.23;;;71.50;;
6432;SDS011;3249;42.690;23.260;2024-01-15T10:16:02;96.43;;;55.07;;
6432;SDS011;3249;42.690;23.260;2024-01-15T10:18:37;88.03;;;49.97;;
6432;SDS011;3249;42.690;23.260;2024-01-15T10:21:06;91.43;;;56.53;;
6432;SDS011;3249;42.690;23.260;2024-01-15T10:23:52;91.03;;;52.23;;
6432;SDS011;3249;42.690;23.260;2024-01-15T10:26:24;89.40;;;48.33;;
6432;SDS011;3249;42.690;23.260;2024-01-15T10:28:57;61.53;;;38.40;;
6432;SDS011;3249;42.690;23.260;2024-01-15T10:31:28;61.07;;;38.80;;
6432;SDS011;3249;42.690;23.260;2024-01-15T10:34:00;71.07;;;46.80;;
6432;SDS011;3249;42.690;23.260;2024-01-15T10:36:41;55.77;;;37.37;;
6432;SDS011;3249;42.690;23.260;2024-01-15T10:39:10;71.23;;;43.27;;
6432;SDS011;3249;42.690;23.260;2024-01-15T10:41:39;62.93;;;36.70;;
6432;SDS011;3249;42.690;23.260;2024-01-15T10:44:12;65.43;;;38.33;;
6432;SDS011;3249;42.690;23.260;2024-01-15T10:46:41;65.83;;;39.67;;
6432;SDS011;3249;42.690;23.260;2024-01-15T10:49:12;57.53;;;33.77;;
6432;SDS011;3249;42.690;23.260;2024-01-15T10:51:42;58.70;;;35.27;;
6432;SDS011;3249;42.690;23.260;2024-01-15T10:54:12;66.27;;;37.87;;
6432;SDS011;3249;42.690;23.260;2024-01-15T10:56:42;63.23;;;39.07;;
6432;SDS011;3249;42.690;23.260;2024-01-15T10:59:16;68.93;;;39.93;;
6432;SDS011;3249;42.690;23.260;2024-01-15T11:01:48;65.53;;;35.77;;
6432;SDS011;3249;42.690;23.260;2024-01-15T11:04:19;48.23;;;31.90;;
6432;SDS011;3249;42.690;23.260;2024-01-15T11:06:50;49.70;;;31.17;;
6432;SDS011;3249;42.690;23.260;2024-01-15T11:09:21;50.20;;;27.20;;
6432;SDS011;3249;42.690;23.260;2024-01-15T11:11:52;35.00;;;19.77;;
6432;SDS011;3249;42.690;23.260;2024-01-15T11:14:41;45.97;;;25.73;;
6432;SDS011;3249;42.690;23.260;2024-01-15T11:17:16;46.77;;;28.30;;
6432;SDS011;3249;42.690;23.260;2024-01-15T11:19:46;44.50;;;29.90;;
6432;SDS011;3249;42.690;23.260;2024-01-15T11:25:17;56.43;;;32.70;;
6432;SDS011;3249;42.690;23.260;2024-01-15T11:27:50;54.17;;;33.77;;
6432;SDS011;3249;42.690;23.260;2024-01-15T11:30:24;46.53;;;28.37;;
6432;SDS011;3249;42.690;23.260;2024-01-15T11:32:54;57.83;;;31.67;;
6432;SDS011;3249;42.690;23.260;2024-01-15T11:35:23;56.27;;;32.93;;
6432;SDS011;3249;42.690;23.260;2024-01-15T11:38:16;55.20;;;32.50;;
6432;SDS011;3249;42.690;23.260;2024-01-15T11:40:56;44.33;;;28.27;;
6432;SDS011;3249;42.690;23.260;2024-01-15T11:43:28;43.93;;;28.77;;
6432;SDS011;3249;42.690;23.260;2024-01-15T11:46:02;46.90;;;29.57;;
6432;SDS011;3249;42.690;23.260;2024-01-15T11:48:35;43.43;;;28.73;;
6432;SDS011;3249;42.690;23.260;2024-01-15T11:51:12;43.40;;;28.43;;
6432;SDS011;3249;42.690;23.260;2024-01-15T11:53:45;57.33;;;33.27;;
6432;SDS011;3249;42.690;23.260;2024-01-15T11:56:20;51.17;;;29.33;;
6432;SDS011;3249;42.690;23.260;2024-01-15T11:58:52;44.00;;;26.40;;
6432;SDS011;3249;42.690;23.260;2024-01-15T12:01:24;44.20;;;25.33;;
6432;SDS011;3249;42.690;23.260;2024-01-15T12:03:54;45.07;;;27.93;;
6432;SDS011;3249;42.690;23.260;2024-01-15T12:06:26;44.67;;;28.20;;
6432;SDS011;3249;42.690;23.260;2024-01-15T12:09:05;44.57;;;24.70;;
6432;SDS011;3249;42.690;23.260;2024-01-15T12:11:36;52.23;;;28.57;;
6432;SDS011;3249;42.690;23.260;2024-01-15T12:14:08;59.00;;;27.93;;
6432;SDS011;3249;42.690;23.260;2024-01-15T12:16:40;50.27;;;33.00;;
6432;SDS011;3249;42.690;23.260;2024-01-15T12:19:09;52.57;;;30.47;;
6432;SDS011;3249;42.690;23.260;2024-01-15T12:21:42;56.17;;;35.37;;
6432;SDS011;3249;42.690;23.260;2024-01-15T12:24:11;73.93;;;39.87;;
6432;SDS011;3249;42.690;23.260;2024-01-15T12:26:42;67.97;;;42.50;;
6432;SDS011;3249;42.690;23.260;2024-01-15T12:29:19;79.07;;;46.90;;
6432;SDS011;3249;42.690;23.260;2024-01-15T12:31:59;86.97;;;53.30;;
6432;SDS011;3249;42.690;23.260;2024-01-15T12:34:29;102.23;;;61.70;;
6432;SDS011;3249;42.690;23.260;2024-01-15T12:36:58;103.10;;;55.73;;
6432;SDS011;3249;42.690;23.260;2024-01-15T12:39:28;84.83;;;47.37;;
6432;SDS011;3249;42.690;23.260;2024-01-15T12:41:58;84.83;;;51.13;;
6432;SDS011;3249;42.690;23.260;2024-01-15T12:44:27;90.57;;;54.27;;
6432;SDS011;3249;42.690;23.260;2024-01-15T12:47:00;74.93;;;47.40;;
6432;SDS011;3249;42.690;23.260;2024-01-15T12:49:30;83.80;;;46.37;;
6432;SDS011;3249;42.690;23.260;2024-01-15T12:51:59;80.03;;;41.77;;
6432;SDS011;3249;42.690;23.260;2024-01-15T12:54:28;71.03;;;40.87;;
6432;SDS011;3249;42.690;23.260;2024-01-15T12:56:58;61.00;;;36.60;;
6432;SDS011;3249;42.690;23.260;2024-01-15T12:59:28;60.00;;;37.90;;
6432;SDS011;3249;42.690;23.260;2024-01-15T13:01:57;61.70;;;37.63;;
6432;SDS011;3249;42.690;23.260;2024-01-15T13:04:29;43.90;;;30.83;;
6432;SDS011;3249;42.690;23.260;2024-01-15T13:06:58;50.77;;;31.40;;
6432;SDS011;3249;42.690;23.260;2024-01-15T13:09:27;43.67;;;29.00;;
6432;SDS011;3249;42.690;23.260;2024-01-15T13:11:58;48.77;;;29.37;;
6432;SDS011;3249;42.690;23.260;2024-01-15T13:14:27;46.27;;;29.67;;
6432;SDS011;3249;42.690;23.260;2024-01-15T13:17:00;49.07;;;29.57;;
6432;SDS011;3249;42.690;23.260;2024-01-15T13:19:32;41.83;;;27.60;;
6432;SDS011;3249;42.690;23.260;2024-01-15T13:22:01;50.43;;;29.03;;
6432;SDS011;3249;42.690;23.260;2024-01-15T13:24:35;71.27;;;34.03;;
6432;SDS011;3249;42.690;23.260;2024-01-15T13:27:04;63.27;;;31.43;;
6432;SDS011;3249;42.690;23.260;2024-01-15T13:29:33;56.23;;;32.27;;
6432;SDS011;3249;42.690;23.260;2024-01-15T13:32:05;47.10;;;28.50;;
6432;SDS011;3249;42.690;23.260;2024-01-15T13:34:35;43.87;;;28.23;;
6432;SDS011;3249;42.690;23.260;2024-01-15T13:37:07;64.97;;;31.53;;
6432;SDS011;3249;42.690;23.260;2024-01-15T13:39:37;58.10;;;30.90;;
6432;SDS011;3249;42.690;23.260;2024-01-15T13:42:06;45.80;;;29.33;;
6432;SDS011;3249;42.690;23.260;2024-01-15T13:44:37;47.87;;;26.73;;
6432;SDS011;3249;42.690;23.260;2024-01-15T13:47:11;58.67;;;32.80;;
6432;SDS011;3249;42.690;23.260;2024-01-15T13:49:40;53.23;;;31.87;;
6432;SDS011;3249;42.690;23.260;2024-01-15T13:52:10;55.77;;;32.00;;
6432;SDS011;3249;42.690;23.260;2024-01-15T13:54:39;57.17;;;34.30;;
6432;SDS011;3249;42.690;23.260;2024-01-15T13:57:08;52.43;;;33.50;;
6432;SDS011;3249;42.690;23.260;2024-01-15T13:59:39;60.97;;;30.97;;
6432;SDS011;3249;42.690;23.260;2024-01-15T14:02:12;56.40;;;31.50;;
6432;SDS011;3249;42.690;23.260;2024-01-15T14:04:41;58.37;;;33.80;;
6432;SDS011;3249;42.690;23.260;2024-01-15T14:07:14;46.27;;;30.53;;
6432;SDS011;3249;42.690;23.260;2024-01-15T14:09:43;61.43;;;31.80;;
6432;SDS011;3249;42.690;23.260;2024-01-15T14:12:17;52.63;;;30.63;;
6432;SDS011;3249;42.690;23.260;2024-01-15T14:14:49;48.53;;;30.10;;
6432;SDS011;3249;42.690;23.260;2024-01-15T14:17:24;64.53;;;32.07;;
6432;SDS011;3249;42.690;23.260;2024-01-15T14:19:53;56.73;;;32.83;;
6432;SDS011;3249;42.690;23.260;2024-01-15T14:22:23;67.50;;;36.03;;
6432;SDS011;3249;42.690;23.260;2024-01-15T14:24:54;68.90;;;38.17;;
6432;SDS011;3249;42.690;23.260;2024-01-15T14:27:24;59.73;;;35.50;;
6432;SDS011;3249;42.690;23.260;2024-01-15T14:29:53;72.60;;;35.70;;
6432;SDS011;3249;42.690;23.260;2024-01-15T14:32:26;74.13;;;37.23;;
6432;SDS011;3249;42.690;23.260;2024-01-15T14:34:56;66.17;;;36.07;;
6432;SDS011;3249;42.690;23.260;2024-01-15T14:37:25;62.67;;;36.00;;
6432;SDS011;3249;42.690;23.260;2024-01-15T14:39:54;66.10;;;36.17;;
6432;SDS011;3249;42.690;23.260;2024-01-15T14:42:23;71.97;;;40.70;;
6432;SDS011;3249;42.690;23.260;2024-01-15T14:44:53;83.30;;;44.00;;
6432;SDS011;3249;42.690;23.260;2024-01-15T14:47:22;83.63;;;44.37;;
6432;SDS011;3249;42.690;23.260;2024-01-15T14:49:55;76.73;;;41.00;;
6432;SDS011;3249;42.690;23.260;2024-01-15T14:52:25;104.67;;;49.30;;
6432;SDS011;3249;42.690;23.260;2024-01-15T14:54:54;112.80;;;54.00;;